Versailles, IN

11:41 AM EST on March 01, 2015 (GMT -0500)
Columbus Municipal | Change Station
CLOSE
Current Station
Airport
Location: Columbus,
Elevation: 656 ft
Nearby Weather Stations

Elev 656 ft 39.26 °N, 85.90 °W | Updated 46 minutes ago

Overcast
Overcast
28 °F
Feels Like 28 °F
N
0
Wind Variable Wind from North

Today
High -- | Low -- °F
--% Chance of Precip.
Yesterday
High -- | Low -- °F
Precip. -- in
7:13 AM 6:33 PM
Waxing Gibbous, 86% visible
Pressure 30.36 in
Visibility 3.0 miles
Clouds Mostly Cloudy 700 ft
Overcast 1400 ft
Dew Point 27 °F
Humidity 93%
Rainfall 0.00 in
Snow Depth Not available.
UV 1 out of 12
Pollen .70 out of 12
Air Quality Not available.
Flu Activity Not available.
METAR KBAK 011555Z 00000KT 3SM BKN007 OVC014 M02/M03 A3036 RMK -SNE40

More Conditions Fewer Conditions

Pressure 30.36 in
Visibility 3.0 miles
Clouds Mostly Cloudy 700 ft
Overcast 1400 ft
Dew Point 27 °F
Humidity 93%
Rainfall 0.00 in
Snow Depth Not available.
UV 1 out of 12
Pollen .70 out of 12
Air Quality Not available.
Flu Activity Not available.
METAR KBAK 011555Z 00000KT 3SM BKN007 OVC014 M02/M03 A3036 RMK -SNE40

More Conditions Fewer Conditions

10-Day Weather Forecast

Almanac

Astronomy

Mar. 01, 2015 Rise Set
Actual Time
Civil Twilight
Nautical Twilight
Astronomical Twilight
Moon
Length of Visible Light
Length of Day
Tomorrow will be .
, % of the Moon is Illuminated

Today's Extremes

State Highs State Lows

Community

WunderPhotos

Upload Photos

1,801,451 photos uploaded!

WunderBlogs® & News

Nearby

Air Quality

  Air Quality AQ Index Pollutant
Not available.

Snow Depth

Station Depth Elevation

Earthquake Activity

City Distance Mag. Time & Date
Minimum magnitude displayed is 2.5.

Coastal Water Temperatures

Place Temperature

Nearby Weather Stations

Special Statement
Statement as of 9:44 AM EST on March 01, 2015

... Snow to end quickly this morning...

Accumulating snowfall will end by 10:00 with less than a quarter
inch of additional accumulation expected on the east end of the
Cincinnati Metro area. Temperatures will warm up later this
morning and any future showers are expected to be primarily
rain... though a few flakes or sleet... or patchy freezing rain
cannot be ruled out entirely through about noon.

Motorists are urged to be very cautious of Road conditions today.